Morganton, NC (28655)

11:22 PM EST on December 22, 2014 (GMT -0500)
Salem Community | Change Station
CLOSE
Current Station
Personal Weather Station
Location: Morganton, NC
Elevation: 1212 ft
Nearby Weather Stations

Elev 1212 ft 35.71 °N, 81.66 °W | Updated 6 seconds ago

Overcast
Overcast
37.9 °F
Feels Like 38 °F
N
2.0
Wind Variable Wind from East
Gusts 0.0 mph

Today
High -- | Low -- °F
--% Chance of Precip.
Yesterday
High -- | Low -- °F
Precip. -- in
7:33 AM 5:17 PM
New Moon, 2% visible
Pressure 30.07 in
Visibility 4.0 miles
Clouds Scattered Clouds 300 ft
Mostly Cloudy 700 ft
Overcast 1600 ft
Windchill 38 °F
Dew Point 37 °F
Humidity 97%
Rainfall 0.09 in
Snow Depth Not available.
UV 0 out of 12
Pollen .30 out of 12
Air Quality Not available.
Flu Activity Not available.
METAR KMRN 230415Z AUTO 36003KT 4SM -RA SCT003 BKN007 OVC016 03/03 A3007 RMK AO2 T00320032

More Conditions Fewer Conditions

Pressure 30.07 in
Visibility 4.0 miles
Clouds Scattered Clouds 300 ft
Mostly Cloudy 700 ft
Overcast 1600 ft
Windchill 38 °F
Dew Point 37 °F
Humidity 97%
Rainfall 0.09 in
Snow Depth Not available.
UV 0 out of 12
Pollen .30 out of 12
Air Quality Not available.
Flu Activity Not available.
METAR KMRN 230415Z AUTO 36003KT 4SM -RA SCT003 BKN007 OVC016 03/03 A3007 RMK AO2 T00320032

More Conditions Fewer Conditions

10-Day Weather Forecast

Almanac

Astronomy

Dec. 22, 2014 Rise Set
Actual Time
Civil Twilight
Nautical Twilight
Astronomical Twilight
Moon
Length of Visible Light
Length of Day
Tomorrow will be .
, % of the Moon is Illuminated

Today's Extremes

State Highs State Lows

Community

WunderPhotos

Upload Photos

1,779,776 photos uploaded!

WunderBlogs® & News

Nearby

Air Quality

  Air Quality AQ Index Pollutant
Not available.

Snow Depth

Station Depth Elevation

Earthquake Activity

City Distance Mag. Time & Date
Minimum magnitude displayed is 2.5.

Coastal Water Temperatures

Place Temperature

Nearby Weather Stations